createdAt,value
2022-08-26T00:01:18.785Z,101177.78
2022-08-26T00:04:31.899Z,101181.88
2022-08-26T00:07:34.541Z,101180.28
2022-08-26T00:10:38.565Z,101175.41
2022-08-26T00:13:41.808Z,101175.16
2022-08-26T00:16:50.577Z,101181.09
2022-08-26T00:19:53.671Z,101186.16
2022-08-26T00:22:56.289Z,101173.63
2022-08-26T00:26:00.856Z,101176.31
2022-08-26T00:29:05.106Z,101169.19
2022-08-26T00:32:08.772Z,101176.63
2022-08-26T00:35:14.418Z,101177.97
2022-08-26T00:38:17.421Z,101173.25
2022-08-26T00:41:21.377Z,101177.63
2022-08-26T00:44:24.458Z,101172.09
2022-08-26T00:47:31.849Z,101170.16
2022-08-26T00:50:37.160Z,101165.91
2022-08-26T00:53:48.757Z,101173.25
2022-08-26T00:56:56.007Z,101171.16
2022-08-26T01:00:01.204Z,101170.84
2022-08-26T01:03:05.235Z,101164.44
2022-08-26T01:06:12.533Z,101161.72
2022-08-26T01:09:16.572Z,101159.75
2022-08-26T01:12:22.775Z,101169.44
2022-08-26T01:15:29.019Z,101161.78
2022-08-26T01:18:36.053Z,101165.25
2022-08-26T01:21:44.680Z,101165.34
2022-08-26T01:24:49.362Z,101162.13
2022-08-26T01:27:53.791Z,101162.00
2022-08-26T01:31:02.255Z,101160.38
2022-08-26T01:34:11.313Z,101165.31
2022-08-26T01:37:16.571Z,101156.88
2022-08-26T01:40:25.593Z,101169.97
2022-08-26T01:43:29.985Z,101168.91
2022-08-26T01:46:33.405Z,101163.03
2022-08-26T01:49:37.963Z,101170.50
2022-08-26T01:52:43.595Z,101169.91
2022-08-26T01:55:51.299Z,101166.59
2022-08-26T01:58:57.051Z,101168.44
2022-08-26T02:02:00.350Z,101172.38
2022-08-26T02:05:07.445Z,101156.34
2022-08-26T02:08:10.304Z,101167.16
2022-08-26T02:11:15.422Z,101168.34
2022-08-26T02:14:23.642Z,101164.13
2022-08-26T02:17:34.711Z,101155.63
2022-08-26T02:20:37.473Z,101162.03
2022-08-26T02:23:40.834Z,101156.63
2022-08-26T02:26:46.902Z,101154.44
2022-08-26T02:29:54.503Z,101157.59
2022-08-26T02:32:59.473Z,101152.19
2022-08-26T02:36:02.058Z,101148.19
2022-08-26T02:39:06.576Z,101143.84
2022-08-26T02:42:11.658Z,101144.72
2022-08-26T02:45:14.313Z,101148.19
2022-08-26T02:48:21.462Z,101143.16
2022-08-26T02:51:24.073Z,101143.16
2022-08-26T02:54:26.670Z,101147.63
2022-08-26T02:57:30.995Z,101142.91
2022-08-26T03:00:33.899Z,101141.19
2022-08-26T03:03:37.185Z,101134.56
2022-08-26T03:06:40.710Z,101136.41
2022-08-26T03:09:44.199Z,101127.84
2022-08-26T03:12:48.659Z,101125.63
2022-08-26T03:15:51.344Z,101128.44
2022-08-26T03:18:54.020Z,101128.19
2022-08-26T03:21:58.063Z,101125.50
2022-08-26T03:25:00.821Z,101126.63
2022-08-26T03:28:06.949Z,101127.22
2022-08-26T03:31:11.150Z,101124.16
2022-08-26T03:34:13.881Z,101123.31
2022-08-26T03:37:17.211Z,101124.78
2022-08-26T03:40:20.642Z,101133.63
2022-08-26T03:43:26.732Z,101130.22
2022-08-26T03:46:29.744Z,101126.19
2022-08-26T03:49:34.135Z,101127.88
2022-08-26T03:52:39.662Z,101132.06
2022-08-26T03:55:46.243Z,101122.47
2022-08-26T03:58:50.369Z,101121.88
2022-08-26T04:01:53.649Z,101122.28
2022-08-26T04:04:56.293Z,101112.56
2022-08-26T04:07:58.850Z,101110.00
2022-08-26T04:11:02.366Z,101108.16
2022-08-26T04:14:09.142Z,101112.81
2022-08-26T04:17:11.693Z,101101.75
2022-08-26T04:20:16.269Z,101109.75
2022-08-26T04:23:18.986Z,101107.28
2022-08-26T04:26:24.254Z,101107.53
2022-08-26T04:29:28.202Z,101103.75
2022-08-26T04:32:30.803Z,101100.41
2022-08-26T04:35:34.213Z,101093.66
2022-08-26T04:38:37.878Z,101104.72
2022-08-26T04:41:40.744Z,101102.75
2022-08-26T04:44:46.421Z,101102.75
2022-08-26T04:47:49.436Z,101106.16
2022-08-26T04:50:52.379Z,101103.09
2022-08-26T04:53:57.063Z,101102.59
2022-08-26T04:56:59.716Z,101107.41
2022-08-26T05:00:05.212Z,101110.59
2022-08-26T05:03:10.264Z,101114.25
2022-08-26T05:06:14.145Z,101114.00
2022-08-26T05:09:18.378Z,101111.19
2022-08-26T05:12:21.003Z,101113.50
2022-08-26T05:15:25.027Z,101116.56
2022-08-26T05:18:30.268Z,101114.50
2022-08-26T05:21:32.895Z,101111.53
2022-08-26T05:24:36.270Z,101114.69
2022-08-26T05:27:39.003Z,101113.19
2022-08-26T05:30:43.850Z,101114.47
2022-08-26T05:33:47.555Z,101113.44
2022-08-26T05:36:50.318Z,101104.34
2022-08-26T05:39:53.030Z,101111.84
2022-08-26T05:42:55.763Z,101112.81
2022-08-26T05:46:08.080Z,101111.72
2022-08-26T05:49:12.201Z,101112.06
2022-08-26T05:52:15.455Z,101110.34
2022-08-26T05:55:19.283Z,101112.59
2022-08-26T05:58:22.990Z,101113.78
2022-08-26T06:01:28.435Z,101118.59
2022-08-26T06:04:31.825Z,101133.16
2022-08-26T06:07:48.581Z,101133.41
2022-08-26T06:10:53.453Z,101130.69
2022-08-26T06:14:03.515Z,101134.00
2022-08-26T06:17:09.656Z,101141.56
2022-08-26T06:20:15.535Z,101136.34
2022-08-26T06:23:37.829Z,101139.56
2022-08-26T06:26:50.409Z,101133.44
2022-08-26T06:29:53.731Z,101119.88
2022-08-26T06:32:58.010Z,101126.00
2022-08-26T06:36:01.135Z,101123.88
2022-08-26T06:39:07.725Z,101121.09
2022-08-26T06:42:33.495Z,101119.38
2022-08-26T06:45:36.982Z,101117.91
2022-08-26T06:48:41.399Z,101112.47
2022-08-26T06:51:43.947Z,101124.19
2022-08-26T06:54:46.571Z,101121.03
2022-08-26T06:57:49.187Z,101116.25
2022-08-26T07:00:51.738Z,101123.16
2022-08-26T07:03:57.574Z,101128.91
2022-08-26T07:07:00.227Z,101125.34
2022-08-26T07:10:02.884Z,101132.59
2022-08-26T07:13:06.449Z,101133.41
2022-08-26T07:16:13.827Z,101132.16
2022-08-26T07:19:18.661Z,101132.91
2022-08-26T07:22:33.383Z,101133.75
2022-08-26T07:25:38.932Z,101137.47
2022-08-26T07:28:41.622Z,101142.47
2022-08-26T07:31:45.176Z,101138.31
2022-08-26T07:34:49.775Z,101136.06
2022-08-26T07:37:56.938Z,101139.94
2022-08-26T07:40:59.875Z,101127.78
2022-08-26T07:44:02.770Z,101125.91
2022-08-26T07:47:19.362Z,101121.63
2022-08-26T07:50:48.852Z,101117.28
2022-08-26T07:53:53.145Z,101120.50
2022-08-26T07:56:56.153Z,101127.81
2022-08-26T08:00:00.010Z,101125.69
2022-08-26T08:03:05.625Z,101127.59
2022-08-26T08:06:09.877Z,101122.81
2022-08-26T08:09:12.779Z,101122.06
2022-08-26T08:12:15.420Z,101124.28
2022-08-26T08:15:20.078Z,101114.66
2022-08-26T08:18:23.437Z,101126.31
2022-08-26T08:21:28.981Z,101129.00
2022-08-26T08:24:32.177Z,101131.47
2022-08-26T08:27:35.332Z,101135.13
2022-08-26T08:30:39.687Z,101141.88
2022-08-26T08:33:42.322Z,101138.13
2022-08-26T08:36:47.144Z,101140.81
2022-08-26T08:39:50.109Z,101136.47
2022-08-26T08:42:58.345Z,101141.81
2022-08-26T08:46:06.460Z,101145.56
2022-08-26T08:49:10.656Z,101151.84
2022-08-26T08:52:26.654Z,101150.13
2022-08-26T08:55:41.879Z,101149.88
2022-08-26T08:58:53.677Z,101145.72
2022-08-26T09:02:07.126Z,101147.84
2022-08-26T09:05:17.737Z,101140.66
2022-08-26T09:08:27.413Z,101138.84
2022-08-26T09:11:31.081Z,101136.91
2022-08-26T09:14:34.606Z,101131.41
2022-08-26T09:17:49.204Z,101124.44
2022-08-26T09:20:58.301Z,101123.38
2022-08-26T09:24:02.471Z,101116.63
2022-08-26T09:27:05.627Z,101120.84
2022-08-26T09:30:11.479Z,101114.66
2022-08-26T09:33:18.243Z,101112.88
2022-08-26T09:36:26.238Z,101107.34
2022-08-26T09:39:37.711Z,101115.44
2022-08-26T09:42:40.620Z,101110.41
2022-08-26T09:45:50.836Z,101104.28
2022-08-26T09:48:56.236Z,101116.25
2022-08-26T09:52:12.677Z,101111.31
2022-08-26T09:55:24.060Z,101098.19
2022-08-26T09:58:34.946Z,101106.50
2022-08-26T10:01:42.893Z,101100.09
2022-08-26T10:04:54.198Z,101096.72
2022-08-26T10:07:58.258Z,101099.34
2022-08-26T10:11:08.292Z,101093.22
2022-08-26T10:14:18.627Z,101096.41
2022-08-26T10:17:31.488Z,101087.53
2022-08-26T10:20:39.022Z,101085.59
2022-08-26T10:23:46.314Z,101082.38
2022-08-26T10:27:01.538Z,101082.19
2022-08-26T10:30:08.820Z,101075.69
2022-08-26T10:33:15.549Z,101076.91
2022-08-26T10:37:05.049Z,101065.28
2022-08-26T10:40:09.168Z,101052.50
2022-08-26T10:43:21.019Z,101046.63
2022-08-26T10:46:28.393Z,101046.97
2022-08-26T10:49:31.190Z,101051.53
2022-08-26T10:52:45.735Z,101046.03
2022-08-26T10:55:58.450Z,101039.69
2022-08-26T10:59:12.571Z,101042.03
2022-08-26T11:02:24.890Z,101038.56
2022-08-26T11:05:27.819Z,101038.94
2022-08-26T11:08:31.467Z,101032.88
2022-08-26T11:11:58.400Z,101025.41
2022-08-26T11:15:03.203Z,101032.25
2022-08-26T11:18:10.617Z,101023.91
2022-08-26T11:22:14.380Z,101011.25
2022-08-26T11:25:18.369Z,100998.53
2022-08-26T11:28:35.382Z,100995.94
2022-08-26T11:31:57.152Z,100989.13
2022-08-26T11:35:01.587Z,100980.03
2022-08-26T11:38:13.346Z,100967.81
2022-08-26T11:41:22.855Z,100965.19
2022-08-26T11:44:30.911Z,100959.84
2022-08-26T11:47:35.541Z,100960.31
2022-08-26T11:50:39.736Z,100952.72
2022-08-26T11:53:44.870Z,100948.03
2022-08-26T11:56:52.377Z,100938.66
2022-08-26T11:59:56.483Z,100942.03
2022-08-26T12:03:03.085Z,100926.25
2022-08-26T12:06:14.178Z,100929.88
2022-08-26T12:09:23.486Z,100916.81
2022-08-26T12:12:34.549Z,100933.56
2022-08-26T12:15:37.694Z,100928.34
2022-08-26T12:18:41.691Z,100939.34
2022-08-26T12:21:48.894Z,100937.19
2022-08-26T12:24:54.352Z,100943.22
2022-08-26T12:28:05.163Z,100942.75
2022-08-26T12:31:07.853Z,100935.75
2022-08-26T12:34:18.077Z,100931.66
2022-08-26T12:37:21.081Z,100926.53
2022-08-26T12:40:33.228Z,100922.91
2022-08-26T12:43:41.914Z,100921.84
2022-08-26T12:46:49.216Z,100917.06
2022-08-26T12:50:03.314Z,100914.75
2022-08-26T12:53:19.157Z,100916.16
2022-08-26T12:56:28.536Z,100911.28
2022-08-26T12:59:31.170Z,100903.53
2022-08-26T13:02:37.327Z,100904.22
2022-08-26T13:05:41.333Z,100896.41
2022-08-26T13:08:45.421Z,100893.38
2022-08-26T13:12:02.091Z,100891.78
2022-08-26T13:15:06.696Z,100891.09
2022-08-26T13:18:09.339Z,100877.50
2022-08-26T13:21:18.915Z,100868.28
2022-08-26T13:24:23.554Z,100865.81
2022-08-26T13:27:27.650Z,100861.50
2022-08-26T13:30:30.417Z,100856.81
2022-08-26T13:33:33.751Z,100860.91
2022-08-26T13:36:38.035Z,100867.06
2022-08-26T13:39:41.911Z,100855.03
2022-08-26T13:42:49.926Z,100856.09
2022-08-26T13:45:52.883Z,100838.97
2022-08-26T13:48:55.962Z,100838.91
2022-08-26T13:51:59.907Z,100845.88
2022-08-26T13:55:03.732Z,100846.94
2022-08-26T13:58:06.413Z,100847.31
2022-08-26T14:01:09.812Z,100845.94
2022-08-26T14:04:12.578Z,100853.19
2022-08-26T14:07:16.572Z,100864.66
2022-08-26T14:10:19.443Z,100862.63
2022-08-26T14:13:24.431Z,100860.59
2022-08-26T14:16:31.510Z,100864.69
2022-08-26T14:19:34.270Z,100873.50
2022-08-26T14:22:43.736Z,100868.91
2022-08-26T14:26:00.486Z,100864.06
2022-08-26T14:29:03.927Z,100873.00
2022-08-26T14:32:11.400Z,100858.03
2022-08-26T14:35:16.763Z,100871.25
2022-08-26T14:38:20.724Z,100877.09
2022-08-26T14:41:25.372Z,100860.44
2022-08-26T14:44:31.906Z,100872.38
2022-08-26T14:47:34.518Z,100860.28
2022-08-26T14:50:37.200Z,100853.13
2022-08-26T14:53:58.568Z,100863.16
2022-08-26T14:57:03.608Z,100867.53
2022-08-26T15:00:07.524Z,100863.38
2022-08-26T15:03:10.340Z,100874.22
2022-08-26T15:06:15.177Z,100882.97
2022-08-26T15:09:19.196Z,100883.66
2022-08-26T15:12:22.080Z,100870.47
2022-08-26T15:15:24.949Z,100875.41
2022-08-26T15:18:27.577Z,100884.44
2022-08-26T15:21:30.155Z,100891.63
2022-08-26T15:24:34.095Z,100894.84
2022-08-26T15:27:36.751Z,100902.66
2022-08-26T15:30:39.436Z,100902.31
2022-08-26T15:33:42.670Z,100911.50
2022-08-26T15:36:46.745Z,100925.38
2022-08-26T15:39:52.014Z,100928.00
2022-08-26T15:43:11.531Z,100933.63
2022-08-26T15:46:19.024Z,100934.47
2022-08-26T15:49:22.704Z,100946.81
2022-08-26T15:52:25.975Z,100945.97
2022-08-26T15:55:29.943Z,100943.34
2022-08-26T15:58:32.611Z,100950.53
2022-08-26T16:01:35.909Z,100948.50
2022-08-26T16:04:38.716Z,100943.06
2022-08-26T16:07:41.439Z,100938.22
2022-08-26T16:10:50.699Z,100938.59
2022-08-26T16:13:53.619Z,100934.16
2022-08-26T16:16:57.470Z,100943.56
2022-08-26T16:20:00.114Z,100955.78
2022-08-26T16:23:03.574Z,100951.03
2022-08-26T16:26:11.745Z,100929.63
2022-08-26T16:29:16.997Z,100923.91
2022-08-26T16:32:19.595Z,100941.09
2022-08-26T16:35:22.161Z,100927.91
2022-08-26T16:38:24.759Z,100924.16
2022-08-26T16:41:31.124Z,100922.16
2022-08-26T16:44:44.242Z,100918.44
2022-08-26T16:47:48.434Z,100908.69
2022-08-26T16:50:51.124Z,100899.72
2022-08-26T16:53:55.843Z,100895.25
2022-08-26T16:56:59.860Z,100903.41
2022-08-26T17:00:05.619Z,100905.28
2022-08-26T17:03:08.858Z,100911.13
2022-08-26T17:06:12.006Z,100908.72
2022-08-26T17:09:14.610Z,100912.16
2022-08-26T17:12:18.812Z,100898.78
2022-08-26T17:15:23.620Z,100903.94
2022-08-26T17:18:29.348Z,100913.09
2022-08-26T17:21:33.560Z,100923.66
2022-08-26T17:24:37.279Z,100939.06
2022-08-26T17:27:41.442Z,100942.50
2022-08-26T17:30:44.340Z,100946.78
2022-08-26T17:33:53.212Z,100952.06
2022-08-26T17:36:56.662Z,100971.16
2022-08-26T17:39:59.359Z,100994.28
2022-08-26T17:43:03.412Z,100979.88
2022-08-26T17:46:08.460Z,100977.03
2022-08-26T17:49:11.268Z,100982.47
2022-08-26T17:52:14.218Z,100972.19
2022-08-26T17:55:18.345Z,100964.63
2022-08-26T17:58:23.772Z,100971.59
2022-08-26T18:01:28.224Z,100965.88
2022-08-26T18:04:30.942Z,100977.88
2022-08-26T18:07:33.872Z,100975.59
2022-08-26T18:10:46.997Z,100978.69
2022-08-26T18:13:51.523Z,100976.72
2022-08-26T18:16:54.696Z,100955.75
2022-08-26T18:19:57.692Z,100957.63
2022-08-26T18:23:00.339Z,100960.19
2022-08-26T18:26:02.934Z,100965.59
2022-08-26T18:29:08.312Z,100961.56
2022-08-26T18:32:10.988Z,100961.88
2022-08-26T18:35:14.161Z,100954.31
2022-08-26T18:38:17.023Z,100944.06
2022-08-26T18:41:21.415Z,100943.78
2022-08-26T18:44:25.400Z,100945.63
2022-08-26T18:47:28.224Z,100941.66
2022-08-26T18:50:31.094Z,100950.50
2022-08-26T18:53:35.389Z,100953.91
2022-08-26T18:56:39.519Z,100952.19
2022-08-26T18:59:43.485Z,100948.22
2022-08-26T19:02:46.994Z,100956.47
2022-08-26T19:05:54.737Z,100963.31
2022-08-26T19:08:57.927Z,100972.13
2022-08-26T19:12:01.841Z,100976.53
2022-08-26T19:15:07.025Z,100976.53
2022-08-26T19:18:11.152Z,100977.53
2022-08-26T19:21:14.518Z,100962.28
2022-08-26T19:24:18.692Z,100967.13
2022-08-26T19:27:21.277Z,100967.28
2022-08-26T19:30:25.568Z,100970.44
2022-08-26T19:33:31.868Z,100987.22
2022-08-26T19:36:35.032Z,100980.66
2022-08-26T19:39:37.763Z,100975.81
2022-08-26T19:42:40.369Z,100980.25
2022-08-26T19:45:44.388Z,100980.81
2022-08-26T19:48:47.616Z,100981.22
2022-08-26T19:51:50.227Z,100987.34
2022-08-26T19:54:52.859Z,100983.50
2022-08-26T19:57:55.651Z,100979.53
2022-08-26T20:00:59.704Z,100974.34
2022-08-26T20:04:02.730Z,100979.41
2022-08-26T20:07:06.563Z,100981.13
2022-08-26T20:10:12.816Z,100986.06
2022-08-26T20:13:15.509Z,100996.03
2022-08-26T20:16:19.569Z,100998.63
2022-08-26T20:19:40.102Z,101000.84
2022-08-26T20:22:43.170Z,101002.28
2022-08-26T20:25:46.617Z,101001.47
2022-08-26T20:28:51.017Z,101003.72
2022-08-26T20:31:55.143Z,100996.97
2022-08-26T20:34:57.806Z,101000.88
2022-08-26T20:38:00.461Z,100992.91
2022-08-26T20:41:03.420Z,100989.78
2022-08-26T20:44:06.488Z,100987.91
2022-08-26T20:47:10.727Z,100997.72
2022-08-26T20:50:13.452Z,100986.00
2022-08-26T20:53:16.065Z,100983.59
2022-08-26T20:56:23.698Z,100988.59
2022-08-26T20:59:27.492Z,100987.75
2022-08-26T21:02:31.464Z,100988.38
2022-08-26T21:05:34.502Z,100998.44
2022-08-26T21:08:40.865Z,100997.03
2022-08-26T21:11:46.332Z,101001.91
2022-08-26T21:14:49.746Z,100996.88
2022-08-26T21:17:53.932Z,101004.84
2022-08-26T21:20:56.638Z,101008.56
2022-08-26T21:23:59.272Z,100998.44
2022-08-26T21:27:01.908Z,101001.25
2022-08-26T21:30:06.391Z,100996.38
2022-08-26T21:33:10.364Z,100993.03
2022-08-26T21:36:14.268Z,100994.41
2022-08-26T21:39:17.739Z,100995.13
2022-08-26T21:42:20.384Z,100993.69
2022-08-26T21:45:23.175Z,100992.56
2022-08-26T21:48:30.241Z,100985.53
2022-08-26T21:51:40.587Z,100982.25
2022-08-26T21:54:49.448Z,100980.16
2022-08-26T21:57:52.547Z,100984.44
2022-08-26T22:00:55.255Z,100986.09
2022-08-26T22:03:59.375Z,100995.22
2022-08-26T22:07:02.431Z,100993.97
2022-08-26T22:10:05.665Z,101001.78
2022-08-26T22:13:09.007Z,101000.22
2022-08-26T22:16:12.787Z,101010.91
2022-08-26T22:19:17.288Z,101009.44
2022-08-26T22:22:20.140Z,101004.56
2022-08-26T22:25:22.829Z,100999.72
2022-08-26T22:28:25.788Z,101008.81
2022-08-26T22:31:37.514Z,101002.69
2022-08-26T22:34:42.706Z,100996.22
2022-08-26T22:37:45.832Z,100995.47
2022-08-26T22:40:50.405Z,101004.47
2022-08-26T22:43:53.400Z,100996.84
2022-08-26T22:46:56.908Z,100998.91
2022-08-26T22:50:01.533Z,100997.38
2022-08-26T22:53:04.616Z,100993.66
2022-08-26T22:56:08.525Z,100996.66
2022-08-26T22:59:11.630Z,100993.66
2022-08-26T23:02:15.164Z,100998.44
2022-08-26T23:05:19.376Z,100997.19
2022-08-26T23:08:22.544Z,100985.56
2022-08-26T23:11:25.286Z,100991.03
2022-08-26T23:14:27.935Z,100984.00
2022-08-26T23:17:30.550Z,100978.59
2022-08-26T23:20:34.889Z,100976.75
2022-08-26T23:23:38.321Z,100987.09
2022-08-26T23:26:42.249Z,100992.16
2022-08-26T23:29:44.823Z,100984.84
2022-08-26T23:32:47.728Z,100985.19
2022-08-26T23:35:50.854Z,100985.72
2022-08-26T23:38:53.597Z,100986.91
2022-08-26T23:41:56.852Z,100984.06
2022-08-26T23:44:59.489Z,100976.06
2022-08-26T23:48:03.015Z,100974.59
2022-08-26T23:51:25.118Z,100976.66
2022-08-26T23:54:27.801Z,100967.81
2022-08-26T23:57:30.510Z,100966.75
